createdAt,value
2019-05-20T00:00:16.722Z,12.68
2019-05-20T00:04:21.641Z,12.66
2019-05-20T00:08:26.524Z,12.49
2019-05-20T00:12:31.426Z,12.42
2019-05-20T00:16:37.177Z,12.47
2019-05-20T00:20:42.145Z,12.53
2019-05-20T00:24:47.047Z,12.54
2019-05-20T00:28:52.013Z,12.57
2019-05-20T00:32:56.980Z,12.59
2019-05-20T00:37:01.898Z,12.63
2019-05-20T00:41:06.793Z,12.58
2019-05-20T00:45:12.429Z,12.47
2019-05-20T00:49:17.335Z,12.39
2019-05-20T00:53:22.250Z,12.42
2019-05-20T00:57:27.140Z,12.33
2019-05-20T01:01:32.040Z,12.22
2019-05-20T01:05:36.932Z,12.04
2019-05-20T01:09:41.831Z,11.91
2019-05-20T01:13:46.729Z,11.74
2019-05-20T01:17:51.617Z,11.64
2019-05-20T01:21:56.513Z,11.57
2019-05-20T01:26:01.408Z,11.44
2019-05-20T01:30:08.512Z,11.33
2019-05-20T01:34:13.412Z,11.38
2019-05-20T01:38:18.317Z,11.49
2019-05-20T01:42:23.213Z,11.51
2019-05-20T01:46:28.110Z,11.56
2019-05-20T01:50:33.014Z,11.57
2019-05-20T01:54:37.917Z,11.46
2019-05-20T01:58:42.799Z,11.41
2019-05-20T02:02:48.659Z,11.43
2019-05-20T02:06:53.558Z,11.33
2019-05-20T02:10:58.451Z,11.20
2019-05-20T02:15:11.830Z,11.07
2019-05-20T02:19:16.725Z,11.04
2019-05-20T02:23:21.610Z,11.09
2019-05-20T02:27:26.504Z,11.13
2019-05-20T02:31:31.412Z,11.18
2019-05-20T02:35:36.301Z,11.24
2019-05-20T02:39:41.207Z,11.18
2019-05-20T02:43:46.094Z,11.13
2019-05-20T02:47:52.061Z,11.15
2019-05-20T02:51:56.964Z,11.23
2019-05-20T02:56:01.938Z,11.31
2019-05-20T03:00:07.784Z,11.33
2019-05-20T03:04:13.203Z,11.29
2019-05-20T03:08:18.229Z,11.31
2019-05-20T03:12:23.130Z,11.45
2019-05-20T03:16:28.024Z,11.58
2019-05-20T03:20:32.930Z,11.77
2019-05-20T03:24:37.814Z,11.92
2019-05-20T03:28:42.789Z,12.08
2019-05-20T03:32:47.682Z,12.20
2019-05-20T03:36:52.583Z,12.29
2019-05-20T03:40:57.470Z,12.32
2019-05-20T03:45:02.742Z,12.39
2019-05-20T03:49:08.613Z,12.45
2019-05-20T03:53:13.516Z,12.50
2019-05-20T03:57:18.411Z,12.54
2019-05-20T04:01:23.320Z,12.61
2019-05-20T04:05:28.201Z,12.64
2019-05-20T04:09:33.105Z,12.69
2019-05-20T04:13:38.570Z,12.70
2019-05-20T04:17:43.483Z,12.70
2019-05-20T04:21:48.381Z,12.75
2019-05-20T04:25:54.238Z,12.80
2019-05-20T04:29:59.141Z,12.88
2019-05-20T04:34:04.042Z,12.89
2019-05-20T04:38:08.937Z,12.94
2019-05-20T04:42:13.845Z,13.01
2019-05-20T04:46:18.744Z,13.05
2019-05-20T04:50:23.640Z,13.10
2019-05-20T04:54:28.544Z,13.10
2019-05-20T04:58:33.429Z,13.13
2019-05-20T05:02:38.328Z,13.23
2019-05-20T05:06:43.284Z,13.26
2019-05-20T05:10:49.790Z,13.28
2019-05-20T05:14:55.765Z,13.33
2019-05-20T05:19:00.660Z,13.46
2019-05-20T05:23:05.561Z,13.54
2019-05-20T05:27:10.456Z,13.78
2019-05-20T05:31:15.361Z,13.95
2019-05-20T05:35:20.592Z,14.07
2019-05-20T05:39:25.495Z,14.36
2019-05-20T05:43:30.388Z,14.36
2019-05-20T05:47:36.248Z,14.80
2019-05-20T05:51:41.143Z,14.80
2019-05-20T05:55:46.041Z,15.32
2019-05-20T05:59:50.939Z,15.58
2019-05-20T06:03:55.836Z,16.13
2019-05-20T06:08:00.733Z,16.45
2019-05-20T06:12:05.630Z,16.22
2019-05-20T06:16:10.540Z,16.16
2019-05-20T06:20:15.861Z,16.26
2019-05-20T06:24:20.762Z,16.30
2019-05-20T06:28:25.650Z,16.09
2019-05-20T06:32:30.550Z,16.07
2019-05-20T06:36:37.171Z,16.01
2019-05-20T06:40:42.065Z,16.01
2019-05-20T06:44:53.146Z,16.04
2019-05-20T06:48:53.618Z,16.19
2019-05-20T06:52:58.518Z,16.36
2019-05-20T06:57:03.485Z,16.61
2019-05-20T07:01:08.418Z,16.87
2019-05-20T07:05:13.392Z,17.58
2019-05-20T07:09:18.272Z,18.16
2019-05-20T07:13:23.175Z,18.05
2019-05-20T07:17:28.078Z,18.15
2019-05-20T07:21:32.986Z,17.78
2019-05-20T07:25:37.883Z,17.35
2019-05-20T07:29:42.852Z,17.12
2019-05-20T07:33:47.754Z,17.13
2019-05-20T07:37:52.657Z,17.15
2019-05-20T07:41:57.556Z,17.33
2019-05-20T07:46:03.104Z,17.53
2019-05-20T07:50:10.329Z,17.52
2019-05-20T07:54:16.070Z,17.55
2019-05-20T07:58:24.273Z,17.51
2019-05-20T08:02:30.144Z,17.59
2019-05-20T08:06:35.030Z,17.76
2019-05-20T08:10:39.900Z,17.87
2019-05-20T08:14:44.798Z,17.96
2019-05-20T08:18:49.712Z,18.06
2019-05-20T08:22:54.599Z,17.99
2019-05-20T08:26:59.492Z,17.91
2019-05-20T08:31:04.464Z,17.98
2019-05-20T08:35:09.889Z,18.21
2019-05-20T08:39:14.798Z,18.30
2019-05-20T08:43:19.698Z,18.34
2019-05-20T08:47:24.607Z,18.28
2019-05-20T08:51:29.861Z,18.46
2019-05-20T08:55:35.797Z,18.56
2019-05-20T08:59:40.653Z,18.82
2019-05-20T09:03:45.546Z,19.27
2019-05-20T09:08:02.440Z,19.32
2019-05-20T09:11:57.123Z,19.42
2019-05-20T09:16:02.089Z,19.62
2019-05-20T09:20:08.396Z,19.47
2019-05-20T09:24:18.071Z,19.45
2019-05-20T09:28:20.928Z,19.19
2019-05-20T09:32:25.766Z,18.92
2019-05-20T09:36:30.656Z,18.88
2019-05-20T09:40:40.329Z,18.91
2019-05-20T09:44:46.211Z,19.03
2019-05-20T09:48:51.111Z,19.14
2019-05-20T09:52:55.992Z,19.50
2019-05-20T09:57:00.877Z,19.50
2019-05-20T10:01:06.848Z,19.34
2019-05-20T10:05:11.747Z,19.31
2019-05-20T10:09:16.649Z,19.55
2019-05-20T10:13:21.541Z,19.59
2019-05-20T10:17:27.395Z,19.46
2019-05-20T10:21:32.294Z,19.24
2019-05-20T10:25:37.198Z,19.20
2019-05-20T10:29:43.063Z,19.37
2019-05-20T10:33:48.034Z,19.66
2019-05-20T10:37:52.923Z,20.03
2019-05-20T10:41:57.817Z,20.59
2019-05-20T10:46:02.797Z,20.55
2019-05-20T10:50:07.926Z,20.79
2019-05-20T10:54:12.827Z,20.72
2019-05-20T10:58:17.733Z,20.71
2019-05-20T11:02:22.635Z,20.62
2019-05-20T11:06:27.536Z,20.39
2019-05-20T11:10:32.434Z,20.45
2019-05-20T11:14:37.340Z,20.47
2019-05-20T11:18:42.227Z,20.40
2019-05-20T11:22:47.122Z,20.09
2019-05-20T11:26:52.028Z,19.97
2019-05-20T11:30:56.927Z,20.09
2019-05-20T11:35:02.299Z,20.07
2019-05-20T11:39:07.660Z,20.01
2019-05-20T11:43:12.552Z,19.92
2019-05-20T11:47:17.450Z,20.06
2019-05-20T11:51:22.353Z,20.04
2019-05-20T11:55:27.299Z,19.85
2019-05-20T11:59:32.157Z,19.54
2019-05-20T12:03:37.055Z,19.41
2019-05-20T12:07:42.016Z,19.44
2019-05-20T12:11:46.884Z,19.55
2019-05-20T12:15:51.783Z,19.18
2019-05-20T12:19:57.746Z,19.14
2019-05-20T12:24:02.653Z,19.21
2019-05-20T12:28:07.543Z,19.21
2019-05-20T12:32:12.459Z,19.00
2019-05-20T12:36:18.313Z,18.82
2019-05-20T12:40:23.281Z,18.89
2019-05-20T12:44:28.171Z,18.86
2019-05-20T12:48:33.068Z,18.76
2019-05-20T12:52:39.104Z,18.94
2019-05-20T12:56:44.758Z,18.98
2019-05-20T13:00:50.027Z,18.87
2019-05-20T13:04:54.911Z,18.53
2019-05-20T13:08:59.815Z,18.19
2019-05-20T13:13:04.735Z,17.92
2019-05-20T13:17:09.603Z,17.85
2019-05-20T13:21:14.504Z,17.78
2019-05-20T13:25:20.930Z,17.57
2019-05-20T13:29:25.860Z,17.67
2019-05-20T13:33:30.743Z,17.67
2019-05-20T13:37:35.638Z,17.56
2019-05-20T13:41:40.538Z,17.54
2019-05-20T13:45:48.030Z,17.63
2019-05-20T13:49:52.140Z,17.65
2019-05-20T13:53:57.036Z,17.64
2019-05-20T13:58:02.073Z,17.61
2019-05-20T14:02:06.868Z,17.50
2019-05-20T14:06:11.808Z,17.22
2019-05-20T14:10:17.129Z,16.86
2019-05-20T14:14:22.018Z,16.74
2019-05-20T14:18:26.924Z,16.79
2019-05-20T14:22:31.812Z,16.75
2019-05-20T14:26:36.811Z,16.63
2019-05-20T14:30:41.711Z,16.52
2019-05-20T14:34:46.599Z,16.41
2019-05-20T14:38:51.499Z,16.33
2019-05-20T14:42:56.394Z,16.28
2019-05-20T14:47:01.319Z,16.27
2019-05-20T14:51:06.191Z,16.26
2019-05-20T14:55:11.235Z,16.42
2019-05-20T14:59:16.201Z,16.68
2019-05-20T15:03:21.114Z,16.83
2019-05-20T15:07:30.595Z,16.79
2019-05-20T15:11:38.097Z,16.46
2019-05-20T15:15:39.198Z,16.34
2019-05-20T15:19:44.092Z,16.13
2019-05-20T15:23:49.056Z,16.20
2019-05-20T15:27:54.780Z,16.22
2019-05-20T15:31:59.679Z,16.22
2019-05-20T15:36:04.732Z,16.14
2019-05-20T15:40:09.952Z,16.09
2019-05-20T15:44:14.839Z,15.96
2019-05-20T15:48:19.733Z,15.88
2019-05-20T15:52:24.716Z,15.82
2019-05-20T15:56:29.620Z,15.78
2019-05-20T16:00:34.525Z,15.74
2019-05-20T16:04:39.434Z,15.75
2019-05-20T16:08:44.336Z,15.74
2019-05-20T16:12:49.237Z,15.71
2019-05-20T16:16:54.132Z,15.68
2019-05-20T16:20:59.047Z,15.63
2019-05-20T16:25:08.494Z,15.54
2019-05-20T16:29:13.390Z,15.47
2019-05-20T16:33:18.278Z,15.39
2019-05-20T16:37:23.181Z,15.33
2019-05-20T16:41:28.076Z,15.28
2019-05-20T16:45:32.980Z,15.24
2019-05-20T16:49:37.876Z,15.21
2019-05-20T16:53:42.849Z,15.20
2019-05-20T16:57:47.688Z,15.21
2019-05-20T17:01:52.571Z,15.26
2019-05-20T17:05:57.477Z,15.28
2019-05-20T17:10:02.736Z,15.31
2019-05-20T17:14:10.592Z,15.29
2019-05-20T17:18:14.342Z,15.29
2019-05-20T17:22:19.237Z,15.26
2019-05-20T17:26:24.146Z,15.23
2019-05-20T17:30:29.033Z,15.27
2019-05-20T17:34:33.927Z,15.22
2019-05-20T17:38:38.823Z,15.07
2019-05-20T17:42:43.722Z,15.03
2019-05-20T17:46:48.686Z,15.01
2019-05-20T17:50:53.919Z,15.01
2019-05-20T17:54:59.783Z,15.00
2019-05-20T17:59:04.743Z,14.97
2019-05-20T18:03:09.648Z,14.90
2019-05-20T18:07:14.547Z,15.00
2019-05-20T18:11:19.576Z,14.96
2019-05-20T18:15:24.428Z,14.91
2019-05-20T18:19:29.322Z,14.91
2019-05-20T18:23:34.222Z,14.89
2019-05-20T18:27:39.349Z,14.82
2019-05-20T18:31:44.304Z,14.80
2019-05-20T18:35:49.212Z,14.83
2019-05-20T18:39:54.247Z,14.82
2019-05-20T18:43:59.150Z,14.75
2019-05-20T18:48:04.050Z,14.75
2019-05-20T18:52:08.947Z,14.73
2019-05-20T18:56:13.833Z,14.66
2019-05-20T19:00:19.546Z,14.65
2019-05-20T19:04:24.438Z,14.64
2019-05-20T19:08:29.400Z,14.66
2019-05-20T19:12:34.318Z,14.64
2019-05-20T19:16:39.208Z,14.50
2019-05-20T19:20:44.108Z,14.53
2019-05-20T19:24:49.004Z,14.52
2019-05-20T19:28:53.915Z,14.48
2019-05-20T19:32:58.806Z,14.46
2019-05-20T19:37:03.704Z,14.43
2019-05-20T19:41:08.670Z,14.33
2019-05-20T19:45:13.824Z,14.44
2019-05-20T19:49:18.726Z,14.44
2019-05-20T19:53:23.621Z,14.25
2019-05-20T19:57:29.588Z,14.25
2019-05-20T20:01:34.493Z,14.32
2019-05-20T20:05:39.394Z,14.32
2019-05-20T20:09:44.303Z,14.31
2019-05-20T20:13:49.216Z,14.27
2019-05-20T20:17:54.112Z,14.27
2019-05-20T20:21:59.078Z,14.25
2019-05-20T20:26:04.031Z,14.10
2019-05-20T20:30:09.473Z,14.22
2019-05-20T20:34:14.527Z,14.17
2019-05-20T20:38:19.414Z,14.18
2019-05-20T20:42:24.321Z,14.20
2019-05-20T20:46:29.225Z,14.26
2019-05-20T20:50:34.203Z,14.29
2019-05-20T20:54:39.106Z,14.29
2019-05-20T20:58:44.006Z,14.32
2019-05-20T21:02:53.145Z,14.31
2019-05-20T21:06:55.511Z,14.06
2019-05-20T21:11:00.414Z,14.18
2019-05-20T21:15:05.757Z,14.14
2019-05-20T21:19:10.655Z,14.15
2019-05-20T21:23:15.551Z,14.08
2019-05-20T21:27:20.469Z,14.08
2019-05-20T21:31:25.440Z,14.15
2019-05-20T21:35:30.343Z,14.15
2019-05-20T21:39:35.235Z,14.01
2019-05-20T21:43:40.144Z,14.01
2019-05-20T21:47:45.042Z,14.11
2019-05-20T21:51:49.948Z,14.06
2019-05-20T21:55:54.953Z,14.03
2019-05-20T21:59:59.847Z,13.93
2019-05-20T22:04:04.759Z,13.93
2019-05-20T22:08:09.663Z,13.90
2019-05-20T22:12:14.587Z,13.90
2019-05-20T22:16:19.509Z,13.92
2019-05-20T22:20:24.394Z,13.94
2019-05-20T22:24:29.303Z,13.98
2019-05-20T22:28:34.206Z,13.95
2019-05-20T22:32:39.105Z,13.91
2019-05-20T22:36:44.013Z,13.91
2019-05-20T22:40:48.908Z,13.86
2019-05-20T22:44:53.815Z,13.85
2019-05-20T22:48:58.733Z,13.86
2019-05-20T22:53:03.646Z,13.94
2019-05-20T22:57:08.543Z,14.41
2019-05-20T23:01:13.433Z,14.23
2019-05-20T23:05:18.342Z,13.98
2019-05-20T23:09:24.218Z,13.93
2019-05-20T23:13:29.146Z,13.86
2019-05-20T23:17:34.049Z,13.81
2019-05-20T23:21:38.937Z,13.79
2019-05-20T23:25:43.852Z,13.78
2019-05-20T23:29:48.757Z,13.74
2019-05-20T23:33:53.667Z,13.74
2019-05-20T23:37:58.573Z,13.75
2019-05-20T23:42:03.467Z,13.77
2019-05-20T23:46:08.368Z,13.78
2019-05-20T23:50:13.970Z,13.72
2019-05-20T23:54:18.857Z,13.72
2019-05-20T23:58:23.761Z,13.75
